DLH322 EDDF-LICJ
Flight info
| Callsign | DLH322 |
|---|---|
| Flight time | 1h 55m |
| Altitude | 37000 |
| Route | ANEKI2L/18 ANEKI Y163 NATOR DCT TRA DCT RIPUS DCT GERSA DCT SOSON DCT ODINA DCT RONAB DCT GIANO |
| Aircraft | A321/M-SDE2E3FGIJ1LORWXYZ/HB1 |
Departure
| Time | 2026-05-04 10:42 |
|---|---|
| Airport | Frankfurt Main Airport (EDDF) |
Arrival
| Time | 2026-05-04 12:37 |
|---|---|
| Airport | Falcone–Borsellino Airport (LICJ) |
| Time | Latitude | Longitude | Altitude | Speed | Heading |
|---|---|---|---|---|---|
| 2026-05-04 10:16 | 50.04654 | 8.56814 | 356 ft | 0 kts | 295° |
| 2026-05-04 10:30 | 50.04653 | 8.56817 | 356 ft | 2 kts | 295° |
| 2026-05-04 10:31 | 50.04642 | 8.56855 | 359 ft | 4 kts | 295° |
| 2026-05-04 10:31 | 50.04633 | 8.56885 | 358 ft | 4 kts | 288° |
| 2026-05-04 10:32 | 50.04658 | 8.56938 | 363 ft | 0 kts | 204° |
| 2026-05-04 10:34 | 50.04657 | 8.56938 | 356 ft | 0 kts | 204° |
| 2026-05-04 10:34 | 50.04638 | 8.56925 | 356 ft | 9 kts | 201° |
| 2026-05-04 10:34 | 50.04559 | 8.56893 | 359 ft | 13 kts | 192° |
| 2026-05-04 10:35 | 50.04466 | 8.56846 | 362 ft | 15 kts | 219° |
| 2026-05-04 10:35 | 50.04417 | 8.56684 | 358 ft | 18 kts | 250° |
| 2026-05-04 10:35 | 50.04371 | 8.56489 | 364 ft | 20 kts | 250° |
| 2026-05-04 10:35 | 50.04320 | 8.56277 | 360 ft | 22 kts | 249° |
| 2026-05-04 10:36 | 50.04265 | 8.56049 | 359 ft | 23 kts | 249° |
| 2026-05-04 10:36 | 50.04208 | 8.55808 | 355 ft | 25 kts | 249° |
| 2026-05-04 10:36 | 50.04147 | 8.55555 | 356 ft | 26 kts | 249° |
| 2026-05-04 10:36 | 50.04087 | 8.55304 | 355 ft | 25 kts | 249° |
| 2026-05-04 10:37 | 50.04027 | 8.55054 | 360 ft | 25 kts | 250° |
| 2026-05-04 10:37 | 50.03965 | 8.54791 | 351 ft | 27 kts | 250° |
| 2026-05-04 10:37 | 50.03905 | 8.54541 | 349 ft | 25 kts | 250° |
| 2026-05-04 10:37 | 50.03824 | 8.54294 | 351 ft | 26 kts | 234° |
| 2026-05-04 10:39 | 50.03465 | 8.52850 | 334 ft | 21 kts | 245° |
| 2026-05-04 10:39 | 50.03419 | 8.52675 | 332 ft | 17 kts | 248° |
| 2026-05-04 10:39 | 50.03335 | 8.52595 | 336 ft | 12 kts | 181° |
| 2026-05-04 10:40 | 50.03327 | 8.52595 | 334 ft | 0 kts | 180° |
| 2026-05-04 10:41 | 50.03226 | 8.52595 | 333 ft | 46 kts | 180° |
| 2026-05-04 10:41 | 50.02642 | 8.52603 | 336 ft | 119 kts | 179° |
| 2026-05-04 10:42 | 50.01614 | 8.52611 | 350 ft | 173 kts | 180° |
| 2026-05-04 10:42 | 50.00403 | 8.52597 | 943 ft | 177 kts | 180° |
| 2026-05-04 10:42 | 49.99134 | 8.52616 | 1579 ft | 188 kts | 179° |
| 2026-05-04 10:42 | 49.97789 | 8.52614 | 2207 ft | 199 kts | 181° |
| 2026-05-04 10:43 | 49.96375 | 8.52595 | 2850 ft | 207 kts | 180° |
| 2026-05-04 10:44 | 49.84807 | 8.53627 | 7926 ft | 244 kts | 178° |
| 2026-05-04 10:45 | 49.83122 | 8.53777 | 8620 ft | 247 kts | 178° |
| 2026-05-04 10:45 | 49.81390 | 8.53916 | 9308 ft | 250 kts | 178° |
| 2026-05-04 10:45 | 49.79641 | 8.54046 | 10006 ft | 253 kts | 179° |
| 2026-05-04 10:45 | 49.77879 | 8.54110 | 10718 ft | 254 kts | 185° |
| 2026-05-04 10:46 | 49.76039 | 8.53878 | 11014 ft | 275 kts | 186° |
| 2026-05-04 10:46 | 49.74052 | 8.53605 | 11181 ft | 298 kts | 186° |
| 2026-05-04 10:46 | 49.71905 | 8.53308 | 11313 ft | 320 kts | 186° |
| 2026-05-04 10:46 | 49.69635 | 8.52999 | 11643 ft | 333 kts | 186° |
| 2026-05-04 10:47 | 49.67339 | 8.52694 | 12235 ft | 336 kts | 186° |
| 2026-05-04 10:47 | 49.64994 | 8.52392 | 12900 ft | 339 kts | 186° |
| 2026-05-04 10:47 | 49.62634 | 8.52088 | 13525 ft | 341 kts | 186° |
| 2026-05-04 10:47 | 49.60254 | 8.51779 | 14124 ft | 344 kts | 186° |
| 2026-05-04 10:49 | 49.43127 | 8.49527 | 18057 ft | 362 kts | 186° |
| 2026-05-04 10:49 | 49.40606 | 8.49196 | 18564 ft | 365 kts | 186° |
| 2026-05-04 10:50 | 49.38063 | 8.48862 | 19052 ft | 368 kts | 187° |
| 2026-05-04 10:51 | 49.19776 | 8.46493 | 22178 ft | 386 kts | 187° |
| 2026-05-04 10:52 | 49.17087 | 8.46146 | 22586 ft | 388 kts | 187° |
| 2026-05-04 10:52 | 49.14381 | 8.45796 | 22974 ft | 391 kts | 187° |
| 2026-05-04 10:52 | 49.12580 | 8.45562 | 23222 ft | 392 kts | 187° |
| 2026-05-04 10:54 | 48.93536 | 8.40289 | 25857 ft | 404 kts | 195° |
| 2026-05-04 10:54 | 48.90823 | 8.39349 | 26215 ft | 405 kts | 195° |
| 2026-05-04 10:56 | 48.71363 | 8.32499 | 28578 ft | 415 kts | 196° |
| 2026-05-04 10:56 | 48.68545 | 8.31460 | 28881 ft | 416 kts | 196° |
| 2026-05-04 10:56 | 48.65723 | 8.30418 | 29191 ft | 418 kts | 196° |
| 2026-05-04 10:57 | 48.62887 | 8.29375 | 29524 ft | 418 kts | 196° |
| 2026-05-04 10:57 | 48.60089 | 8.28350 | 29819 ft | 419 kts | 196° |
| 2026-05-04 10:57 | 48.57242 | 8.27312 | 30084 ft | 421 kts | 196° |
| 2026-05-04 10:57 | 48.54384 | 8.26272 | 30357 ft | 422 kts | 196° |
| 2026-05-04 10:58 | 48.51509 | 8.25279 | 30606 ft | 424 kts | 193° |
| 2026-05-04 10:58 | 48.48581 | 8.24861 | 30847 ft | 429 kts | 184° |
| 2026-05-04 10:58 | 48.45577 | 8.25196 | 31078 ft | 435 kts | 175° |
| 2026-05-04 10:58 | 48.42582 | 8.25945 | 31347 ft | 435 kts | 174° |
| 2026-05-04 10:59 | 48.39598 | 8.26689 | 31668 ft | 434 kts | 175° |
| 2026-05-04 10:59 | 48.36621 | 8.27418 | 31985 ft | 432 kts | 175° |
| 2026-05-04 10:59 | 48.33653 | 8.28133 | 32257 ft | 431 kts | 175° |
| 2026-05-04 10:59 | 48.30695 | 8.28839 | 32546 ft | 430 kts | 175° |
| 2026-05-04 11:00 | 48.27742 | 8.29545 | 32807 ft | 429 kts | 175° |
| 2026-05-04 11:01 | 48.07316 | 8.34479 | 34685 ft | 423 kts | 175° |
| 2026-05-04 11:02 | 48.04404 | 8.35185 | 34891 ft | 424 kts | 175° |
| 2026-05-04 11:02 | 48.01477 | 8.35893 | 35007 ft | 423 kts | 175° |
| 2026-05-04 11:05 | 47.61229 | 8.45006 | 35028 ft | 417 kts | 179° |
| 2026-05-04 11:06 | 47.55447 | 8.45730 | 35027 ft | 417 kts | 179° |
| 2026-05-04 11:06 | 47.49692 | 8.46521 | 35023 ft | 418 kts | 178° |
| 2026-05-04 11:10 | 47.09002 | 8.52476 | 35024 ft | 421 kts | 178° |
| 2026-05-04 11:12 | 46.85655 | 8.55851 | 35011 ft | 423 kts | 178° |
| 2026-05-04 11:12 | 46.79792 | 8.56696 | 35016 ft | 423 kts | 178° |
| 2026-05-04 11:13 | 46.73944 | 8.57530 | 35019 ft | 424 kts | 177° |
| 2026-05-04 11:13 | 46.68065 | 8.58374 | 35023 ft | 424 kts | 177° |
| 2026-05-04 11:14 | 46.62227 | 8.59205 | 35034 ft | 424 kts | 177° |
| 2026-05-04 11:16 | 46.38697 | 8.62527 | 35086 ft | 425 kts | 177° |
| 2026-05-04 11:16 | 46.32805 | 8.63356 | 35097 ft | 426 kts | 177° |
| 2026-05-04 11:17 | 46.26938 | 8.64184 | 35109 ft | 425 kts | 177° |
| 2026-05-04 11:19 | 46.06493 | 8.68755 | 35136 ft | 432 kts | 161° |
| 2026-05-04 11:19 | 46.03708 | 8.70379 | 35140 ft | 432 kts | 161° |
| 2026-05-04 11:19 | 45.98161 | 8.73591 | 35147 ft | 432 kts | 161° |
| 2026-05-04 11:20 | 45.92564 | 8.76807 | 35141 ft | 433 kts | 161° |
| 2026-05-04 11:20 | 45.86951 | 8.80020 | 35148 ft | 433 kts | 161° |
| 2026-05-04 11:22 | 45.64534 | 8.92805 | 35146 ft | 434 kts | 161° |
| 2026-05-04 11:23 | 45.58916 | 8.95990 | 35147 ft | 434 kts | 161° |
| 2026-05-04 11:25 | 45.39276 | 9.07083 | 35145 ft | 434 kts | 161° |
| 2026-05-04 11:25 | 45.33687 | 9.10226 | 35147 ft | 435 kts | 161° |
| 2026-05-04 11:27 | 45.08346 | 9.24367 | 35146 ft | 435 kts | 161° |
| 2026-05-04 11:28 | 45.02701 | 9.27514 | 35137 ft | 435 kts | 161° |
| 2026-05-04 11:28 | 44.97058 | 9.30648 | 35144 ft | 436 kts | 161° |
| 2026-05-04 11:29 | 44.91437 | 9.33763 | 35140 ft | 436 kts | 161° |
| 2026-05-04 11:29 | 44.85779 | 9.36887 | 35133 ft | 436 kts | 161° |
| 2026-05-04 11:33 | 44.46202 | 9.58540 | 35149 ft | 436 kts | 161° |
| 2026-05-04 11:33 | 44.40564 | 9.61594 | 35152 ft | 437 kts | 161° |
| 2026-05-04 11:34 | 44.34886 | 9.64668 | 35154 ft | 437 kts | 161° |
| 2026-05-04 11:34 | 44.29201 | 9.67750 | 35156 ft | 437 kts | 161° |
| 2026-05-04 11:35 | 44.23527 | 9.70810 | 35159 ft | 438 kts | 161° |
| 2026-05-04 11:35 | 44.17866 | 9.73851 | 35164 ft | 438 kts | 161° |
| 2026-05-04 11:36 | 44.12171 | 9.76912 | 35167 ft | 438 kts | 161° |
| 2026-05-04 11:36 | 44.06501 | 9.79951 | 35173 ft | 438 kts | 161° |
| 2026-05-04 11:37 | 44.00795 | 9.83004 | 35175 ft | 439 kts | 161° |
| 2026-05-04 11:37 | 43.95099 | 9.86048 | 35177 ft | 439 kts | 161° |
| 2026-05-04 11:38 | 43.89389 | 9.89094 | 35178 ft | 439 kts | 161° |
| 2026-05-04 11:38 | 43.83722 | 9.92108 | 35180 ft | 439 kts | 161° |
| 2026-05-04 11:39 | 43.78001 | 9.95145 | 35180 ft | 439 kts | 161° |
| 2026-05-04 11:41 | 43.58020 | 10.05677 | 35182 ft | 439 kts | 161° |
| 2026-05-04 11:41 | 43.52339 | 10.08665 | 35179 ft | 440 kts | 161° |
| 2026-05-04 11:42 | 43.46616 | 10.11675 | 35177 ft | 440 kts | 161° |
| 2026-05-04 11:42 | 43.40894 | 10.14681 | 35173 ft | 441 kts | 162° |
| 2026-05-04 11:43 | 43.35149 | 10.17678 | 35172 ft | 441 kts | 162° |
| 2026-05-04 11:43 | 43.29428 | 10.20655 | 35169 ft | 441 kts | 162° |
| 2026-05-04 11:44 | 43.23665 | 10.23656 | 35166 ft | 442 kts | 162° |
| 2026-05-04 11:44 | 43.17898 | 10.26662 | 35162 ft | 443 kts | 162° |
| 2026-05-04 11:45 | 43.12147 | 10.29643 | 35160 ft | 444 kts | 162° |
| 2026-05-04 11:45 | 43.07337 | 10.32133 | 35161 ft | 445 kts | 162° |
| 2026-05-04 11:46 | 43.01536 | 10.35121 | 35161 ft | 445 kts | 162° |
| 2026-05-04 11:46 | 42.95725 | 10.38107 | 35163 ft | 446 kts | 163° |
| 2026-05-04 11:47 | 42.89931 | 10.41083 | 35165 ft | 447 kts | 163° |
| 2026-05-04 11:47 | 42.84099 | 10.44082 | 35164 ft | 447 kts | 163° |
| 2026-05-04 11:48 | 42.78293 | 10.47056 | 35165 ft | 448 kts | 163° |
| 2026-05-04 11:48 | 42.72440 | 10.50049 | 35166 ft | 449 kts | 163° |
| 2026-05-04 11:49 | 42.66574 | 10.53030 | 35166 ft | 449 kts | 163° |
| 2026-05-04 11:49 | 42.60745 | 10.55997 | 35169 ft | 450 kts | 163° |
| 2026-05-04 11:50 | 42.54878 | 10.58990 | 35169 ft | 450 kts | 163° |
| 2026-05-04 11:50 | 42.49003 | 10.61977 | 35171 ft | 450 kts | 163° |
| 2026-05-04 11:51 | 42.43153 | 10.64935 | 35172 ft | 451 kts | 163° |
| 2026-05-04 11:51 | 42.37268 | 10.67901 | 35173 ft | 451 kts | 163° |
| 2026-05-04 11:52 | 42.31371 | 10.70872 | 35175 ft | 451 kts | 163° |
| 2026-05-04 11:52 | 42.25481 | 10.73836 | 35178 ft | 452 kts | 163° |
| 2026-05-04 11:53 | 42.19621 | 10.76777 | 35179 ft | 452 kts | 163° |
| 2026-05-04 11:53 | 42.13724 | 10.79736 | 35181 ft | 452 kts | 163° |
| 2026-05-04 11:55 | 41.90151 | 10.91487 | 35160 ft | 453 kts | 164° |
| 2026-05-04 11:56 | 41.84229 | 10.94418 | 35159 ft | 454 kts | 164° |
| 2026-05-04 11:56 | 41.78294 | 10.97362 | 35161 ft | 454 kts | 164° |
| 2026-05-04 11:57 | 41.72382 | 11.00290 | 35166 ft | 455 kts | 164° |
| 2026-05-04 11:57 | 41.66462 | 11.03208 | 35170 ft | 455 kts | 164° |
| 2026-05-04 11:58 | 41.60510 | 11.06132 | 35171 ft | 455 kts | 164° |
| 2026-05-04 11:58 | 41.54547 | 11.09063 | 35174 ft | 456 kts | 164° |
| 2026-05-04 11:59 | 41.48636 | 11.11967 | 35174 ft | 455 kts | 164° |
| 2026-05-04 11:59 | 41.42671 | 11.14886 | 35170 ft | 456 kts | 164° |
| 2026-05-04 12:00 | 41.36718 | 11.17786 | 35166 ft | 456 kts | 164° |
| 2026-05-04 12:00 | 41.30755 | 11.20694 | 35164 ft | 456 kts | 164° |
| 2026-05-04 12:01 | 41.24819 | 11.23588 | 35162 ft | 456 kts | 164° |
| 2026-05-04 12:02 | 41.03938 | 11.33699 | 35150 ft | 457 kts | 164° |
| 2026-05-04 12:03 | 40.97952 | 11.36584 | 35150 ft | 458 kts | 164° |
| 2026-05-04 12:03 | 40.91985 | 11.39456 | 35148 ft | 458 kts | 164° |
| 2026-05-04 12:04 | 40.85973 | 11.42338 | 35146 ft | 459 kts | 165° |
| 2026-05-04 12:04 | 40.79957 | 11.45220 | 35142 ft | 460 kts | 164° |
| 2026-05-04 12:05 | 40.73974 | 11.48083 | 35139 ft | 461 kts | 165° |
| 2026-05-04 12:05 | 40.67930 | 11.50969 | 35138 ft | 461 kts | 165° |
| 2026-05-04 12:06 | 40.61888 | 11.53843 | 35141 ft | 462 kts | 165° |
| 2026-05-04 12:06 | 40.55862 | 11.56715 | 35147 ft | 463 kts | 165° |
| 2026-05-04 12:07 | 40.49798 | 11.59603 | 35146 ft | 463 kts | 165° |
| 2026-05-04 12:07 | 40.43718 | 11.62486 | 35148 ft | 464 kts | 165° |
| 2026-05-04 12:08 | 40.37640 | 11.65352 | 35151 ft | 464 kts | 165° |
| 2026-05-04 12:08 | 40.31583 | 11.68212 | 35153 ft | 465 kts | 165° |
| 2026-05-04 12:09 | 40.25487 | 11.71082 | 35153 ft | 465 kts | 165° |
| 2026-05-04 12:09 | 40.19371 | 11.73948 | 35155 ft | 466 kts | 165° |
| 2026-05-04 12:10 | 40.13263 | 11.76818 | 35158 ft | 466 kts | 165° |
| 2026-05-04 12:10 | 40.07186 | 11.79679 | 35159 ft | 467 kts | 165° |
| 2026-05-04 12:11 | 40.01071 | 11.82549 | 35159 ft | 467 kts | 165° |
| 2026-05-04 12:11 | 39.94938 | 11.85409 | 35063 ft | 468 kts | 165° |
| 2026-05-04 12:12 | 39.91874 | 11.86831 | 34808 ft | 467 kts | 165° |
| 2026-05-04 12:12 | 39.88814 | 11.88252 | 34560 ft | 465 kts | 165° |
| 2026-05-04 12:12 | 39.85780 | 11.89690 | 34107 ft | 463 kts | 163° |
| 2026-05-04 12:12 | 39.82796 | 11.91251 | 33628 ft | 460 kts | 161° |
| 2026-05-04 12:13 | 39.79896 | 11.92894 | 33144 ft | 457 kts | 160° |
| 2026-05-04 12:14 | 39.60138 | 12.04225 | 29830 ft | 431 kts | 162° |
| 2026-05-04 12:15 | 39.57385 | 12.05754 | 29382 ft | 428 kts | 162° |
| 2026-05-04 12:15 | 39.54656 | 12.07278 | 28946 ft | 424 kts | 162° |
| 2026-05-04 12:15 | 39.51957 | 12.08793 | 28520 ft | 420 kts | 161° |
| 2026-05-04 12:15 | 39.49286 | 12.10295 | 28106 ft | 413 kts | 161° |
| 2026-05-04 12:16 | 39.46690 | 12.11751 | 27701 ft | 409 kts | 161° |
| 2026-05-04 12:16 | 39.44091 | 12.13198 | 27296 ft | 404 kts | 161° |
| 2026-05-04 12:16 | 39.41510 | 12.14629 | 26909 ft | 400 kts | 161° |
| 2026-05-04 12:16 | 39.38961 | 12.16041 | 26524 ft | 395 kts | 161° |
| 2026-05-04 12:17 | 39.36476 | 12.17422 | 26148 ft | 391 kts | 161° |
| 2026-05-04 12:17 | 39.33994 | 12.18802 | 25770 ft | 386 kts | 161° |
| 2026-05-04 12:17 | 39.31537 | 12.20169 | 25394 ft | 381 kts | 161° |
| 2026-05-04 12:17 | 39.29113 | 12.21514 | 25018 ft | 378 kts | 160° |
| 2026-05-04 12:18 | 39.26700 | 12.22849 | 24638 ft | 376 kts | 160° |
| 2026-05-04 12:18 | 39.24299 | 12.24173 | 24264 ft | 373 kts | 160° |
| 2026-05-04 12:18 | 39.21915 | 12.25489 | 23879 ft | 370 kts | 160° |
| 2026-05-04 12:18 | 39.19553 | 12.26793 | 23492 ft | 368 kts | 160° |
| 2026-05-04 12:19 | 39.17225 | 12.28078 | 23113 ft | 366 kts | 160° |
| 2026-05-04 12:19 | 39.14892 | 12.29366 | 22718 ft | 363 kts | 160° |
| 2026-05-04 12:19 | 39.12572 | 12.30648 | 22331 ft | 361 kts | 160° |
| 2026-05-04 12:19 | 39.10266 | 12.31918 | 21934 ft | 359 kts | 160° |
| 2026-05-04 12:20 | 39.07976 | 12.33181 | 21539 ft | 356 kts | 160° |
| 2026-05-04 12:20 | 39.05700 | 12.34437 | 21139 ft | 355 kts | 160° |
| 2026-05-04 12:20 | 39.03470 | 12.35667 | 20756 ft | 352 kts | 160° |
| 2026-05-04 12:20 | 39.01224 | 12.36905 | 20357 ft | 350 kts | 160° |
| 2026-05-04 12:21 | 38.98984 | 12.38138 | 19969 ft | 347 kts | 160° |
| 2026-05-04 12:21 | 38.96763 | 12.39357 | 19576 ft | 345 kts | 160° |
| 2026-05-04 12:21 | 38.94587 | 12.40548 | 19193 ft | 343 kts | 160° |
| 2026-05-04 12:21 | 38.92403 | 12.41742 | 18802 ft | 340 kts | 160° |
| 2026-05-04 12:22 | 38.90231 | 12.42931 | 18420 ft | 338 kts | 160° |
| 2026-05-04 12:22 | 38.88070 | 12.44116 | 18017 ft | 336 kts | 160° |
| 2026-05-04 12:22 | 38.85925 | 12.45303 | 17642 ft | 334 kts | 159° |
| 2026-05-04 12:22 | 38.83814 | 12.46540 | 17264 ft | 332 kts | 158° |
| 2026-05-04 12:23 | 38.81756 | 12.47792 | 16889 ft | 330 kts | 157° |
| 2026-05-04 12:23 | 38.79696 | 12.49058 | 16505 ft | 327 kts | 157° |
| 2026-05-04 12:23 | 38.77647 | 12.50312 | 16129 ft | 324 kts | 157° |
| 2026-05-04 12:23 | 38.75612 | 12.51553 | 15755 ft | 322 kts | 157° |
| 2026-05-04 12:24 | 38.73601 | 12.52770 | 15382 ft | 319 kts | 157° |
| 2026-05-04 12:24 | 38.71596 | 12.53977 | 15013 ft | 317 kts | 157° |
| 2026-05-04 12:24 | 38.69604 | 12.55170 | 14646 ft | 314 kts | 157° |
| 2026-05-04 12:24 | 38.67624 | 12.56352 | 14279 ft | 312 kts | 157° |
| 2026-05-04 12:25 | 38.65664 | 12.57524 | 13910 ft | 309 kts | 156° |
| 2026-05-04 12:25 | 38.63724 | 12.58686 | 13554 ft | 307 kts | 156° |
| 2026-05-04 12:25 | 38.61794 | 12.59839 | 13196 ft | 305 kts | 156° |
| 2026-05-04 12:25 | 38.59896 | 12.60970 | 12844 ft | 304 kts | 156° |
| 2026-05-04 12:26 | 38.57984 | 12.62101 | 12548 ft | 300 kts | 157° |
| 2026-05-04 12:26 | 38.56083 | 12.63215 | 12227 ft | 300 kts | 157° |
| 2026-05-04 12:26 | 38.54191 | 12.64317 | 11860 ft | 298 kts | 157° |
| 2026-05-04 12:26 | 38.52307 | 12.65411 | 11494 ft | 296 kts | 157° |
| 2026-05-04 12:27 | 38.50442 | 12.66496 | 11118 ft | 294 kts | 157° |
| 2026-05-04 12:27 | 38.48593 | 12.67573 | 10751 ft | 291 kts | 156° |
| 2026-05-04 12:27 | 38.46758 | 12.68644 | 10387 ft | 289 kts | 156° |
| 2026-05-04 12:27 | 38.44954 | 12.69692 | 10236 ft | 290 kts | 156° |
| 2026-05-04 12:28 | 38.43091 | 12.70772 | 10102 ft | 295 kts | 156° |
| 2026-05-04 12:28 | 38.41197 | 12.71871 | 9567 ft | 299 kts | 156° |
| 2026-05-04 12:28 | 38.39320 | 12.72958 | 9135 ft | 292 kts | 156° |
| 2026-05-04 12:28 | 38.37472 | 12.74030 | 8424 ft | 290 kts | 156° |
| 2026-05-04 12:29 | 38.35659 | 12.75082 | 7867 ft | 285 kts | 156° |
| 2026-05-04 12:29 | 38.33873 | 12.76117 | 7459 ft | 283 kts | 156° |
| 2026-05-04 12:29 | 38.32085 | 12.77151 | 6836 ft | 279 kts | 156° |
| 2026-05-04 12:29 | 38.30345 | 12.78162 | 6326 ft | 273 kts | 156° |
| 2026-05-04 12:30 | 38.28611 | 12.79167 | 5843 ft | 276 kts | 156° |
| 2026-05-04 12:30 | 38.26865 | 12.80177 | 5439 ft | 273 kts | 156° |
| 2026-05-04 12:30 | 38.25145 | 12.81172 | 4818 ft | 269 kts | 156° |
| 2026-05-04 12:30 | 38.23445 | 12.82152 | 4199 ft | 268 kts | 156° |
| 2026-05-04 12:31 | 38.21773 | 12.83112 | 3863 ft | 260 kts | 156° |
| 2026-05-04 12:31 | 38.20201 | 12.84015 | 3809 ft | 238 kts | 156° |
| 2026-05-04 12:31 | 38.18733 | 12.84859 | 3727 ft | 226 kts | 155° |
| 2026-05-04 12:31 | 38.17310 | 12.85684 | 3625 ft | 224 kts | 156° |
| 2026-05-04 12:32 | 38.15896 | 12.86498 | 3566 ft | 216 kts | 156° |
| 2026-05-04 12:32 | 38.13257 | 12.88014 | 3359 ft | 207 kts | 156° |
| 2026-05-04 12:32 | 38.12064 | 12.89006 | 3258 ft | 207 kts | 129° |
| 2026-05-04 12:33 | 38.11559 | 12.90639 | 3121 ft | 197 kts | 93° |
| 2026-05-04 12:33 | 38.11892 | 12.92286 | 2797 ft | 192 kts | 65° |
| 2026-05-04 12:33 | 38.12436 | 12.93819 | 2509 ft | 188 kts | 67° |
| 2026-05-04 12:33 | 38.12944 | 12.95309 | 2240 ft | 179 kts | 68° |
| 2026-05-04 12:34 | 38.13418 | 12.96710 | 2001 ft | 166 kts | 67° |
| 2026-05-04 12:34 | 38.13853 | 12.98001 | 1808 ft | 152 kts | 67° |
| 2026-05-04 12:34 | 38.14259 | 12.99209 | 1603 ft | 146 kts | 67° |
| 2026-05-04 12:34 | 38.14651 | 13.00371 | 1413 ft | 139 kts | 66° |
| 2026-05-04 12:35 | 38.15022 | 13.01473 | 1230 ft | 133 kts | 66° |
| 2026-05-04 12:35 | 38.15380 | 13.02535 | 1057 ft | 131 kts | 66° |
| 2026-05-04 12:35 | 38.15739 | 13.03600 | 882 ft | 131 kts | 66° |
| 2026-05-04 12:35 | 38.16098 | 13.04656 | 747 ft | 130 kts | 65° |
| 2026-05-04 12:36 | 38.16447 | 13.05713 | 677 ft | 130 kts | 71° |
| 2026-05-04 12:36 | 38.16812 | 13.06769 | 485 ft | 131 kts | 61° |
| 2026-05-04 12:36 | 38.17147 | 13.07840 | 309 ft | 131 kts | 65° |
| 2026-05-04 12:36 | 38.17516 | 13.08898 | 100 ft | 131 kts | 66° |
| 2026-05-04 12:37 | 38.17743 | 13.09575 | 66 ft | 116 kts | 66° |
| 2026-05-04 12:37 | 38.17991 | 13.10314 | 68 ft | 69 kts | 66° |
| 2026-05-04 12:37 | 38.18163 | 13.10829 | 66 ft | 59 kts | 67° |
| 2026-05-04 12:37 | 38.18310 | 13.11266 | 68 ft | 49 kts | 67° |
| 2026-05-04 12:38 | 38.18439 | 13.11647 | 70 ft | 40 kts | 67° |
| 2026-05-04 12:38 | 38.18532 | 13.11891 | 72 ft | 17 kts | 35° |
| 2026-05-04 12:38 | 38.18584 | 13.11857 | 70 ft | 11 kts | 289° |
| 2026-05-04 12:38 | 38.18603 | 13.11739 | 67 ft | 16 kts | 279° |
| 2026-05-04 12:39 | 38.18616 | 13.11589 | 64 ft | 18 kts | 273° |
| 2026-05-04 12:39 | 38.18572 | 13.11431 | 62 ft | 20 kts | 246° |
| 2026-05-04 12:39 | 38.18515 | 13.11263 | 65 ft | 22 kts | 247° |
| 2026-05-04 12:39 | 38.18455 | 13.11082 | 65 ft | 23 kts | 247° |
| 2026-05-04 12:40 | 38.18445 | 13.10941 | 63 ft | 15 kts | 316° |
| 2026-05-04 12:40 | 38.18483 | 13.10827 | 63 ft | 11 kts | 289° |
| 2026-05-04 12:40 | 38.18503 | 13.10722 | 65 ft | 13 kts | 265° |
| 2026-05-04 12:40 | 38.18497 | 13.10650 | 65 ft | 7 kts | 311° |
| 2026-05-04 12:41 | 38.18537 | 13.10614 | 61 ft | 3 kts | 337° |
| 2026-05-04 12:41 | 38.18551 | 13.10607 | 65 ft | 1 kts | 338° |